Terminal Aerodrome Forecast
Issued by NWS

Home | Current Version | Previous Version | Graphics & Text | Print | Product List | Glossary On
Versions: 1 2 3 4 5 6 7 8 9 10 11 12 13 14 15 16 17 18 19
000
FTUS43 KTOP 241130
TAFMHK
TAF
KMHK 241130Z 2412/2512 19006KT P6SM VCSH BKN120
     FM241600 VRB05KT P6SM SCT150
     FM242000 05006KT P6SM VCTS SCT060CB BKN150
     FM250600 03004KT P6SM BKN200=

USA.gov is the U.S. government's official web portal to all federal, state and local government web resources and services.